sensor_id;sensor_type;location;lat;lon;timestamp;P1;durP1;ratioP1;P2;durP2;ratioP2
49193;SDS011;35029;50.804;12.866;2023-04-20T00:01:45;9.00;;;7.18;;
49193;SDS011;35029;50.804;12.866;2023-04-20T00:04:12;9.07;;;7.28;;
49193;SDS011;35029;50.804;12.866;2023-04-20T00:06:39;9.30;;;7.78;;
49193;SDS011;35029;50.804;12.866;2023-04-20T00:09:06;9.65;;;8.23;;
49193;SDS011;35029;50.804;12.866;2023-04-20T00:11:32;10.57;;;7.95;;
49193;SDS011;35029;50.804;12.866;2023-04-20T00:14:00;9.32;;;8.30;;
49193;SDS011;35029;50.804;12.866;2023-04-20T00:16:26;7.68;;;6.95;;
49193;SDS011;35029;50.804;12.866;2023-04-20T00:18:52;9.23;;;7.28;;
49193;SDS011;35029;50.804;12.866;2023-04-20T00:21:18;8.98;;;8.07;;
49193;SDS011;35029;50.804;12.866;2023-04-20T00:23:48;10.98;;;8.55;;
49193;SDS011;35029;50.804;12.866;2023-04-20T00:26:16;11.85;;;7.28;;
49193;SDS011;35029;50.804;12.866;2023-04-20T00:28:48;10.02;;;8.10;;
49193;SDS011;35029;50.804;12.866;2023-04-20T00:31:15;7.55;;;6.85;;
49193;SDS011;35029;50.804;12.866;2023-04-20T00:33:40;8.93;;;7.68;;
49193;SDS011;35029;50.804;12.866;2023-04-20T00:36:06;8.05;;;7.25;;
49193;SDS011;35029;50.804;12.866;2023-04-20T00:38:34;8.73;;;7.22;;
49193;SDS011;35029;50.804;12.866;2023-04-20T00:40:59;8.73;;;7.47;;
49193;SDS011;35029;50.804;12.866;2023-04-20T00:43:25;8.57;;;7.60;;
49193;SDS011;35029;50.804;12.866;2023-04-20T00:45:51;8.18;;;7.00;;
49193;SDS011;35029;50.804;12.866;2023-04-20T00:48:17;12.63;;;6.70;;
49193;SDS011;35029;50.804;12.866;2023-04-20T00:50:43;9.32;;;7.13;;
49193;SDS011;35029;50.804;12.866;2023-04-20T00:53:09;8.52;;;7.60;;
49193;SDS011;35029;50.804;12.866;2023-04-20T00:55:36;8.68;;;7.75;;
49193;SDS011;35029;50.804;12.866;2023-04-20T00:58:03;8.38;;;7.55;;
49193;SDS011;35029;50.804;12.866;2023-04-20T01:00:31;9.00;;;7.65;;
49193;SDS011;35029;50.804;12.866;2023-04-20T01:02:57;9.95;;;8.48;;
49193;SDS011;35029;50.804;12.866;2023-04-20T01:05:23;11.77;;;8.02;;
49193;SDS011;35029;50.804;12.866;2023-04-20T01:07:49;10.10;;;7.97;;
49193;SDS011;35029;50.804;12.866;2023-04-20T01:10:15;11.90;;;8.05;;
49193;SDS011;35029;50.804;12.866;2023-04-20T01:12:41;11.70;;;8.18;;
49193;SDS011;35029;50.804;12.866;2023-04-20T01:15:08;9.40;;;7.85;;
49193;SDS011;35029;50.804;12.866;2023-04-20T01:17:35;8.93;;;7.22;;
49193;SDS011;35029;50.804;12.866;2023-04-20T01:20:06;13.32;;;8.48;;
49193;SDS011;35029;50.804;12.866;2023-04-20T01:22:33;9.95;;;7.25;;
49193;SDS011;35029;50.804;12.866;2023-04-20T01:25:07;8.15;;;6.85;;
49193;SDS011;35029;50.804;12.866;2023-04-20T01:27:32;8.27;;;7.35;;
49193;SDS011;35029;50.804;12.866;2023-04-20T01:29:59;8.27;;;7.32;;
49193;SDS011;35029;50.804;12.866;2023-04-20T01:32:25;10.93;;;8.77;;
49193;SDS011;35029;50.804;12.866;2023-04-20T01:34:53;10.32;;;8.95;;
49193;SDS011;35029;50.804;12.866;2023-04-20T01:37:18;9.85;;;8.77;;
49193;SDS011;35029;50.804;12.866;2023-04-20T01:39:44;11.43;;;8.52;;
49193;SDS011;35029;50.804;12.866;2023-04-20T01:42:11;9.95;;;8.15;;
49193;SDS011;35029;50.804;12.866;2023-04-20T01:44:36;9.48;;;8.57;;
49193;SDS011;35029;50.804;12.866;2023-04-20T01:47:03;9.60;;;8.38;;
49193;SDS011;35029;50.804;12.866;2023-04-20T01:49:28;10.15;;;9.15;;
49193;SDS011;35029;50.804;12.866;2023-04-20T01:51:54;11.68;;;9.98;;
49193;SDS011;35029;50.804;12.866;2023-04-20T01:54:20;10.10;;;9.02;;
49193;SDS011;35029;50.804;12.866;2023-04-20T01:56:45;8.90;;;8.00;;
49193;SDS011;35029;50.804;12.866;2023-04-20T01:59:13;10.70;;;9.05;;
49193;SDS011;35029;50.804;12.866;2023-04-20T02:01:39;10.18;;;9.18;;
49193;SDS011;35029;50.804;12.866;2023-04-20T02:04:05;9.60;;;8.60;;
49193;SDS011;35029;50.804;12.866;2023-04-20T02:06:30;9.82;;;8.82;;
49193;SDS011;35029;50.804;12.866;2023-04-20T02:08:58;11.25;;;9.55;;
49193;SDS011;35029;50.804;12.866;2023-04-20T02:11:24;11.32;;;9.98;;
49193;SDS011;35029;50.804;12.866;2023-04-20T02:13:50;11.43;;;10.20;;
49193;SDS011;35029;50.804;12.866;2023-04-20T02:16:16;11.02;;;9.93;;
49193;SDS011;35029;50.804;12.866;2023-04-20T02:18:43;12.55;;;10.18;;
49193;SDS011;35029;50.804;12.866;2023-04-20T02:21:10;11.18;;;9.98;;
49193;SDS011;35029;50.804;12.866;2023-04-20T02:23:36;10.73;;;9.23;;
49193;SDS011;35029;50.804;12.866;2023-04-20T02:26:01;10.02;;;9.02;;
49193;SDS011;35029;50.804;12.866;2023-04-20T02:28:27;11.10;;;9.43;;
49193;SDS011;35029;50.804;12.866;2023-04-20T02:30:52;10.45;;;9.38;;
49193;SDS011;35029;50.804;12.866;2023-04-20T02:33:18;12.57;;;9.82;;
49193;SDS011;35029;50.804;12.866;2023-04-20T02:35:46;9.95;;;8.95;;
49193;SDS011;35029;50.804;12.866;2023-04-20T02:38:12;11.10;;;8.85;;
49193;SDS011;35029;50.804;12.866;2023-04-20T02:40:37;10.10;;;8.25;;
49193;SDS011;35029;50.804;12.866;2023-04-20T02:43:04;9.63;;;7.43;;
49193;SDS011;35029;50.804;12.866;2023-04-20T02:45:31;8.23;;;7.32;;
49193;SDS011;35029;50.804;12.866;2023-04-20T02:47:57;8.05;;;7.25;;
49193;SDS011;35029;50.804;12.866;2023-04-20T02:50:25;7.57;;;6.78;;
49193;SDS011;35029;50.804;12.866;2023-04-20T02:53:01;7.90;;;7.10;;
49193;SDS011;35029;50.804;12.866;2023-04-20T02:55:30;9.20;;;6.88;;
49193;SDS011;35029;50.804;12.866;2023-04-20T02:58:00;8.02;;;7.22;;
49193;SDS011;35029;50.804;12.866;2023-04-20T03:00:40;7.97;;;7.10;;
49193;SDS011;35029;50.804;12.866;2023-04-20T03:03:09;8.18;;;7.25;;
49193;SDS011;35029;50.804;12.866;2023-04-20T03:05:35;7.72;;;6.88;;
49193;SDS011;35029;50.804;12.866;2023-04-20T03:08:00;7.60;;;6.90;;
49193;SDS011;35029;50.804;12.866;2023-04-20T03:10:29;7.78;;;6.97;;
49193;SDS011;35029;50.804;12.866;2023-04-20T03:13:00;7.32;;;6.63;;
49193;SDS011;35029;50.804;12.866;2023-04-20T03:15:33;7.45;;;6.60;;
49193;SDS011;35029;50.804;12.866;2023-04-20T03:18:10;7.32;;;6.63;;
49193;SDS011;35029;50.804;12.866;2023-04-20T03:20:37;7.55;;;6.85;;
49193;SDS011;35029;50.804;12.866;2023-04-20T03:23:02;9.10;;;7.32;;
49193;SDS011;35029;50.804;12.866;2023-04-20T03:25:28;7.65;;;6.85;;
49193;SDS011;35029;50.804;12.866;2023-04-20T03:27:58;7.32;;;6.63;;
49193;SDS011;35029;50.804;12.866;2023-04-20T03:30:24;8.02;;;7.22;;
49193;SDS011;35029;50.804;12.866;2023-04-20T03:33:10;7.50;;;6.80;;
49193;SDS011;35029;50.804;12.866;2023-04-20T03:35:36;8.18;;;6.88;;
49193;SDS011;35029;50.804;12.866;2023-04-20T03:38:03;11.13;;;7.85;;
49193;SDS011;35029;50.804;12.866;2023-04-20T03:40:30;8.85;;;7.97;;
49193;SDS011;35029;50.804;12.866;2023-04-20T03:42:56;8.30;;;7.50;;
49193;SDS011;35029;50.804;12.866;2023-04-20T03:45:21;8.50;;;7.60;;
49193;SDS011;35029;50.804;12.866;2023-04-20T03:47:47;8.13;;;7.30;;
49193;SDS011;35029;50.804;12.866;2023-04-20T03:50:13;7.60;;;6.80;;
49193;SDS011;35029;50.804;12.866;2023-04-20T03:52:38;8.45;;;7.25;;
49193;SDS011;35029;50.804;12.866;2023-04-20T03:55:05;7.80;;;7.00;;
49193;SDS011;35029;50.804;12.866;2023-04-20T03:57:32;7.57;;;6.65;;
49193;SDS011;35029;50.804;12.866;2023-04-20T03:59:59;7.05;;;6.18;;
49193;SDS011;35029;50.804;12.866;2023-04-20T04:02:31;7.72;;;7.00;;
49193;SDS011;35029;50.804;12.866;2023-04-20T04:04:56;8.55;;;7.35;;
49193;SDS011;35029;50.804;12.866;2023-04-20T04:07:22;8.35;;;7.55;;
49193;SDS011;35029;50.804;12.866;2023-04-20T04:09:48;10.73;;;7.35;;
49193;SDS011;35029;50.804;12.866;2023-04-20T04:12:14;8.88;;;7.97;;
49193;SDS011;35029;50.804;12.866;2023-04-20T04:14:40;9.13;;;8.20;;
49193;SDS011;35029;50.804;12.866;2023-04-20T04:17:06;8.45;;;7.65;;
49193;SDS011;35029;50.804;12.866;2023-04-20T04:19:34;11.38;;;8.00;;
49193;SDS011;35029;50.804;12.866;2023-04-20T04:22:01;9.20;;;8.30;;
49193;SDS011;35029;50.804;12.866;2023-04-20T04:24:31;9.50;;;8.20;;
49193;SDS011;35029;50.804;12.866;2023-04-20T04:27:08;11.18;;;8.65;;
49193;SDS011;35029;50.804;12.866;2023-04-20T04:29:39;10.98;;;9.50;;
49193;SDS011;35029;50.804;12.866;2023-04-20T04:32:08;9.95;;;8.95;;
49193;SDS011;35029;50.804;12.866;2023-04-20T04:34:36;10.07;;;9.02;;
49193;SDS011;35029;50.804;12.866;2023-04-20T04:37:03;11.20;;;9.30;;
49193;SDS011;35029;50.804;12.866;2023-04-20T04:39:39;10.45;;;9.35;;
49193;SDS011;35029;50.804;12.866;2023-04-20T04:42:12;13.15;;;8.77;;
49193;SDS011;35029;50.804;12.866;2023-04-20T04:44:41;9.52;;;8.60;;
49193;SDS011;35029;50.804;12.866;2023-04-20T04:47:10;9.77;;;8.77;;
49193;SDS011;35029;50.804;12.866;2023-04-20T04:49:37;10.82;;;9.35;;
49193;SDS011;35029;50.804;12.866;2023-04-20T04:52:06;11.77;;;9.35;;
49193;SDS011;35029;50.804;12.866;2023-04-20T04:54:32;11.70;;;8.73;;
49193;SDS011;35029;50.804;12.866;2023-04-20T04:56:58;10.23;;;9.05;;
49193;SDS011;35029;50.804;12.866;2023-04-20T04:59:23;9.70;;;8.70;;
49193;SDS011;35029;50.804;12.866;2023-04-20T05:01:49;9.77;;;8.43;;
49193;SDS011;35029;50.804;12.866;2023-04-20T05:04:14;9.93;;;8.68;;
49193;SDS011;35029;50.804;12.866;2023-04-20T05:06:40;8.70;;;7.80;;
49193;SDS011;35029;50.804;12.866;2023-04-20T05:09:05;10.75;;;8.68;;
49193;SDS011;35029;50.804;12.866;2023-04-20T05:11:31;11.13;;;8.82;;
49193;SDS011;35029;50.804;12.866;2023-04-20T05:13:57;10.43;;;9.35;;
49193;SDS011;35029;50.804;12.866;2023-04-20T05:16:22;11.27;;;10.05;;
49193;SDS011;35029;50.804;12.866;2023-04-20T05:18:48;11.23;;;10.13;;
49193;SDS011;35029;50.804;12.866;2023-04-20T05:21:13;12.75;;;11.45;;
49193;SDS011;35029;50.804;12.866;2023-04-20T05:23:39;14.00;;;11.50;;
49193;SDS011;35029;50.804;12.866;2023-04-20T05:26:06;10.85;;;9.75;;
49193;SDS011;35029;50.804;12.866;2023-04-20T05:28:32;11.02;;;9.82;;
49193;SDS011;35029;50.804;12.866;2023-04-20T05:30:58;11.48;;;10.27;;
49193;SDS011;35029;50.804;12.866;2023-04-20T05:33:24;11.95;;;10.00;;
49193;SDS011;35029;50.804;12.866;2023-04-20T05:35:50;11.50;;;10.27;;
49193;SDS011;35029;50.804;12.866;2023-04-20T05:38:20;13.55;;;10.70;;
49193;SDS011;35029;50.804;12.866;2023-04-20T05:40:46;11.27;;;10.10;;
49193;SDS011;35029;50.804;12.866;2023-04-20T05:43:11;12.95;;;11.48;;
49193;SDS011;35029;50.804;12.866;2023-04-20T05:45:37;12.13;;;10.82;;
49193;SDS011;35029;50.804;12.866;2023-04-20T05:48:02;15.02;;;13.10;;
49193;SDS011;35029;50.804;12.866;2023-04-20T05:50:28;14.40;;;12.80;;
49193;SDS011;35029;50.804;12.866;2023-04-20T05:53:00;14.43;;;12.93;;
49193;SDS011;35029;50.804;12.866;2023-04-20T05:55:28;20.02;;;15.63;;
49193;SDS011;35029;50.804;12.866;2023-04-20T05:57:54;18.60;;;15.45;;
49193;SDS011;35029;50.804;12.866;2023-04-20T06:00:20;16.40;;;14.77;;
49193;SDS011;35029;50.804;12.866;2023-04-20T06:02:46;17.27;;;15.45;;
49193;SDS011;35029;50.804;12.866;2023-04-20T06:05:12;17.35;;;15.40;;
49193;SDS011;35029;50.804;12.866;2023-04-20T06:07:38;18.65;;;16.48;;
49193;SDS011;35029;50.804;12.866;2023-04-20T06:10:03;21.50;;;15.57;;
49193;SDS011;35029;50.804;12.866;2023-04-20T06:12:30;20.20;;;15.68;;
49193;SDS011;35029;50.804;12.866;2023-04-20T06:14:56;18.77;;;16.23;;
49193;SDS011;35029;50.804;12.866;2023-04-20T06:17:22;19.00;;;16.85;;
49193;SDS011;35029;50.804;12.866;2023-04-20T06:19:48;19.35;;;15.80;;
49193;SDS011;35029;50.804;12.866;2023-04-20T06:22:14;18.58;;;16.23;;
49193;SDS011;35029;50.804;12.866;2023-04-20T06:24:41;16.17;;;13.60;;
49193;SDS011;35029;50.804;12.866;2023-04-20T06:27:09;16.20;;;14.43;;
49193;SDS011;35029;50.804;12.866;2023-04-20T06:29:36;15.48;;;13.57;;
49193;SDS011;35029;50.804;12.866;2023-04-20T06:32:02;15.60;;;12.65;;
49193;SDS011;35029;50.804;12.866;2023-04-20T06:34:28;12.45;;;11.15;;
49193;SDS011;35029;50.804;12.866;2023-04-20T06:36:54;12.00;;;10.55;;
49193;SDS011;35029;50.804;12.866;2023-04-20T06:39:20;11.73;;;10.45;;
49193;SDS011;35029;50.804;12.866;2023-04-20T06:41:45;9.27;;;8.38;;
49193;SDS011;35029;50.804;12.866;2023-04-20T06:44:12;9.75;;;8.75;;
49193;SDS011;35029;50.804;12.866;2023-04-20T06:46:38;10.40;;;8.55;;
49193;SDS011;35029;50.804;12.866;2023-04-20T06:49:04;8.77;;;7.97;;
49193;SDS011;35029;50.804;12.866;2023-04-20T06:51:30;9.63;;;8.63;;
49193;SDS011;35029;50.804;12.866;2023-04-20T06:53:56;9.32;;;8.32;;
49193;SDS011;35029;50.804;12.866;2023-04-20T06:56:22;8.55;;;7.70;;
49193;SDS011;35029;50.804;12.866;2023-04-20T06:58:48;8.90;;;8.00;;
49193;SDS011;35029;50.804;12.866;2023-04-20T07:01:13;7.32;;;6.63;;
49193;SDS011;35029;50.804;12.866;2023-04-20T07:03:38;7.82;;;7.03;;
49193;SDS011;35029;50.804;12.866;2023-04-20T07:06:06;6.68;;;6.05;;
49193;SDS011;35029;50.804;12.866;2023-04-20T07:08:35;7.13;;;6.18;;
49193;SDS011;35029;50.804;12.866;2023-04-20T07:11:00;6.82;;;6.03;;
49193;SDS011;35029;50.804;12.866;2023-04-20T07:13:26;8.45;;;6.07;;
49193;SDS011;35029;50.804;12.866;2023-04-20T07:15:55;5.80;;;5.03;;
49193;SDS011;35029;50.804;12.866;2023-04-20T07:18:20;8.50;;;6.28;;
49193;SDS011;35029;50.804;12.866;2023-04-20T07:20:46;5.82;;;5.20;;
49193;SDS011;35029;50.804;12.866;2023-04-20T07:23:11;8.65;;;5.85;;
49193;SDS011;35029;50.804;12.866;2023-04-20T07:25:37;5.78;;;5.25;;
49193;SDS011;35029;50.804;12.866;2023-04-20T07:28:02;6.22;;;5.63;;
49193;SDS011;35029;50.804;12.866;2023-04-20T07:30:28;8.23;;;6.13;;
49193;SDS011;35029;50.804;12.866;2023-04-20T07:32:55;5.97;;;5.38;;
49193;SDS011;35029;50.804;12.866;2023-04-20T07:35:20;7.97;;;6.03;;
49193;SDS011;35029;50.804;12.866;2023-04-20T07:37:46;6.78;;;5.50;;
49193;SDS011;35029;50.804;12.866;2023-04-20T07:40:12;6.68;;;6.07;;
49193;SDS011;35029;50.804;12.866;2023-04-20T07:42:37;6.47;;;5.80;;
49193;SDS011;35029;50.804;12.866;2023-04-20T07:45:03;7.20;;;5.82;;
49193;SDS011;35029;50.804;12.866;2023-04-20T07:47:31;6.47;;;5.78;;
49193;SDS011;35029;50.804;12.866;2023-04-20T07:49:58;6.28;;;5.65;;
49193;SDS011;35029;50.804;12.866;2023-04-20T07:52:24;6.90;;;6.15;;
49193;SDS011;35029;50.804;12.866;2023-04-20T07:54:50;7.18;;;6.03;;
49193;SDS011;35029;50.804;12.866;2023-04-20T07:57:18;8.85;;;6.47;;
49193;SDS011;35029;50.804;12.866;2023-04-20T07:59:45;9.57;;;6.80;;
49193;SDS011;35029;50.804;12.866;2023-04-20T08:02:11;7.45;;;6.43;;
49193;SDS011;35029;50.804;12.866;2023-04-20T08:04:39;8.32;;;7.53;;
49193;SDS011;35029;50.804;12.866;2023-04-20T08:07:05;13.13;;;8.15;;
49193;SDS011;35029;50.804;12.866;2023-04-20T08:09:30;9.85;;;7.47;;
49193;SDS011;35029;50.804;12.866;2023-04-20T08:11:57;7.72;;;6.93;;
49193;SDS011;35029;50.804;12.866;2023-04-20T08:14:25;8.77;;;7.28;;
49193;SDS011;35029;50.804;12.866;2023-04-20T08:16:51;11.05;;;8.10;;
49193;SDS011;35029;50.804;12.866;2023-04-20T08:19:17;8.70;;;7.80;;
49193;SDS011;35029;50.804;12.866;2023-04-20T08:21:42;8.82;;;7.93;;
49193;SDS011;35029;50.804;12.866;2023-04-20T08:24:08;10.98;;;7.78;;
49193;SDS011;35029;50.804;12.866;2023-04-20T08:26:34;8.93;;;6.80;;
49193;SDS011;35029;50.804;12.866;2023-04-20T08:29:00;8.35;;;6.80;;
49193;SDS011;35029;50.804;12.866;2023-04-20T08:31:26;7.68;;;6.90;;
49193;SDS011;35029;50.804;12.866;2023-04-20T08:33:52;8.90;;;8.00;;
49193;SDS011;35029;50.804;12.866;2023-04-20T08:36:18;9.98;;;8.43;;
49193;SDS011;35029;50.804;12.866;2023-04-20T08:38:44;10.75;;;8.77;;
49193;SDS011;35029;50.804;12.866;2023-04-20T08:41:10;9.10;;;7.60;;
49193;SDS011;35029;50.804;12.866;2023-04-20T08:43:39;11.20;;;7.57;;
49193;SDS011;35029;50.804;12.866;2023-04-20T08:46:05;9.35;;;7.30;;
49193;SDS011;35029;50.804;12.866;2023-04-20T08:48:33;9.70;;;7.65;;
49193;SDS011;35029;50.804;12.866;2023-04-20T08:51:03;11.23;;;7.45;;
49193;SDS011;35029;50.804;12.866;2023-04-20T08:53:29;12.10;;;8.45;;
49193;SDS011;35029;50.804;12.866;2023-04-20T08:55:56;15.43;;;8.68;;
49193;SDS011;35029;50.804;12.866;2023-04-20T08:58:28;13.73;;;9.25;;
49193;SDS011;35029;50.804;12.866;2023-04-20T09:00:56;18.38;;;9.85;;
49193;SDS011;35029;50.804;12.866;2023-04-20T09:03:31;11.85;;;9.63;;
49193;SDS011;35029;50.804;12.866;2023-04-20T09:06:01;13.80;;;10.25;;
49193;SDS011;35029;50.804;12.866;2023-04-20T09:08:34;13.93;;;10.40;;
49193;SDS011;35029;50.804;12.866;2023-04-20T09:11:01;11.77;;;7.90;;
49193;SDS011;35029;50.804;12.866;2023-04-20T09:13:27;9.20;;;7.50;;
49193;SDS011;35029;50.804;12.866;2023-04-20T09:15:53;8.13;;;7.10;;
49193;SDS011;35029;50.804;12.866;2023-04-20T09:18:19;8.77;;;7.35;;
49193;SDS011;35029;50.804;12.866;2023-04-20T09:20:45;6.93;;;6.22;;
49193;SDS011;35029;50.804;12.866;2023-04-20T09:23:11;7.82;;;6.78;;
49193;SDS011;35029;50.804;12.866;2023-04-20T09:25:42;7.95;;;7.15;;
49193;SDS011;35029;50.804;12.866;2023-04-20T09:28:10;8.50;;;6.95;;
49193;SDS011;35029;50.804;12.866;2023-04-20T09:30:47;8.85;;;7.35;;
49193;SDS011;35029;50.804;12.866;2023-04-20T09:33:13;7.78;;;6.75;;
49193;SDS011;35029;50.804;12.866;2023-04-20T09:35:39;7.60;;;6.80;;
49193;SDS011;35029;50.804;12.866;2023-04-20T09:38:07;9.18;;;6.50;;
49193;SDS011;35029;50.804;12.866;2023-04-20T09:40:33;7.15;;;6.35;;
49193;SDS011;35029;50.804;12.866;2023-04-20T09:43:08;8.60;;;7.20;;
49193;SDS011;35029;50.804;12.866;2023-04-20T09:45:36;9.10;;;6.82;;
49193;SDS011;35029;50.804;12.866;2023-04-20T09:48:05;10.38;;;7.22;;
49193;SDS011;35029;50.804;12.866;2023-04-20T09:50:35;8.38;;;7.07;;
49193;SDS011;35029;50.804;12.866;2023-04-20T09:53:02;8.90;;;7.72;;
49193;SDS011;35029;50.804;12.866;2023-04-20T09:55:32;9.10;;;7.38;;
49193;SDS011;35029;50.804;12.866;2023-04-20T09:58:01;8.88;;;7.93;;
49193;SDS011;35029;50.804;12.866;2023-04-20T10:00:28;9.73;;;7.90;;
49193;SDS011;35029;50.804;12.866;2023-04-20T10:02:54;8.93;;;7.90;;
49193;SDS011;35029;50.804;12.866;2023-04-20T10:05:31;14.02;;;8.35;;
49193;SDS011;35029;50.804;12.866;2023-04-20T10:07:58;8.88;;;7.53;;
49193;SDS011;35029;50.804;12.866;2023-04-20T10:10:25;10.10;;;7.07;;
49193;SDS011;35029;50.804;12.866;2023-04-20T10:12:51;10.98;;;7.13;;
49193;SDS011;35029;50.804;12.866;2023-04-20T10:15:19;9.18;;;6.65;;
49193;SDS011;35029;50.804;12.866;2023-04-20T10:17:46;9.57;;;7.22;;
49193;SDS011;35029;50.804;12.866;2023-04-20T10:22:46;7.25;;;6.55;;
49193;SDS011;35029;50.804;12.866;2023-04-20T10:25:16;7.45;;;6.68;;
49193;SDS011;35029;50.804;12.866;2023-04-20T10:27:57;8.27;;;6.78;;
49193;SDS011;35029;50.804;12.866;2023-04-20T10:30:34;8.52;;;7.05;;
49193;SDS011;35029;50.804;12.866;2023-04-20T10:33:07;8.32;;;6.35;;
49193;SDS011;35029;50.804;12.866;2023-04-20T10:35:43;8.35;;;6.65;;
49193;SDS011;35029;50.804;12.866;2023-04-20T10:38:13;7.05;;;6.07;;
49193;SDS011;35029;50.804;12.866;2023-04-20T10:40:40;7.55;;;6.60;;
49193;SDS011;35029;50.804;12.866;2023-04-20T10:43:18;9.02;;;6.18;;
49193;SDS011;35029;50.804;12.866;2023-04-20T10:45:45;6.80;;;5.30;;
49193;SDS011;35029;50.804;12.866;2023-04-20T10:48:11;6.85;;;5.10;;
49193;SDS011;35029;50.804;12.866;2023-04-20T10:50:37;8.05;;;5.40;;
49193;SDS011;35029;50.804;12.866;2023-04-20T10:53:03;6.90;;;5.63;;
49193;SDS011;35029;50.804;12.866;2023-04-20T10:55:29;7.43;;;5.55;;
49193;SDS011;35029;50.804;12.866;2023-04-20T10:57:55;9.98;;;6.47;;
49193;SDS011;35029;50.804;12.866;2023-04-20T11:00:22;7.65;;;6.63;;
49193;SDS011;35029;50.804;12.866;2023-04-20T11:02:53;7.43;;;6.50;;
49193;SDS011;35029;50.804;12.866;2023-04-20T11:05:24;7.88;;;6.68;;
49193;SDS011;35029;50.804;12.866;2023-04-20T11:07:54;10.35;;;6.63;;
49193;SDS011;35029;50.804;12.866;2023-04-20T11:10:38;7.85;;;6.68;;
49193;SDS011;35029;50.804;12.866;2023-04-20T11:13:05;8.88;;;6.82;;
49193;SDS011;35029;50.804;12.866;2023-04-20T11:15:31;6.82;;;6.10;;
49193;SDS011;35029;50.804;12.866;2023-04-20T11:18:07;14.85;;;7.50;;
49193;SDS011;35029;50.804;12.866;2023-04-20T11:20:33;10.30;;;7.90;;
49193;SDS011;35029;50.804;12.866;2023-04-20T11:23:00;9.05;;;7.40;;
49193;SDS011;35029;50.804;12.866;2023-04-20T11:25:29;8.52;;;7.63;;
49193;SDS011;35029;50.804;12.866;2023-04-20T11:28:04;14.30;;;6.93;;
49193;SDS011;35029;50.804;12.866;2023-04-20T11:30:38;10.05;;;7.95;;
49193;SDS011;35029;50.804;12.866;2023-04-20T11:33:05;9.05;;;8.07;;
49193;SDS011;35029;50.804;12.866;2023-04-20T11:35:37;10.85;;;9.35;;
49193;SDS011;35029;50.804;12.866;2023-04-20T11:38:07;10.85;;;8.88;;
49193;SDS011;35029;50.804;12.866;2023-04-20T11:40:33;9.63;;;8.40;;
49193;SDS011;35029;50.804;12.866;2023-04-20T11:42:59;10.10;;;8.40;;
49193;SDS011;35029;50.804;12.866;2023-04-20T11:45:25;10.25;;;9.02;;
49193;SDS011;35029;50.804;12.866;2023-04-20T11:47:54;12.00;;;10.55;;
49193;SDS011;35029;50.804;12.866;2023-04-20T11:50:23;10.68;;;9.35;;
49193;SDS011;35029;50.804;12.866;2023-04-20T11:52:49;13.40;;;9.50;;
49193;SDS011;35029;50.804;12.866;2023-04-20T11:55:14;11.63;;;9.50;;
49193;SDS011;35029;50.804;12.866;2023-04-20T11:57:40;10.32;;;9.20;;
49193;SDS011;35029;50.804;12.866;2023-04-20T12:00:06;11.23;;;9.70;;
49193;SDS011;35029;50.804;12.866;2023-04-20T12:02:38;14.88;;;11.45;;
49193;SDS011;35029;50.804;12.866;2023-04-20T12:05:05;11.88;;;10.27;;
49193;SDS011;35029;50.804;12.866;2023-04-20T12:07:32;11.35;;;10.18;;
49193;SDS011;35029;50.804;12.866;2023-04-20T12:09:58;10.60;;;9.48;;
49193;SDS011;35029;50.804;12.866;2023-04-20T12:12:23;11.85;;;8.98;;
49193;SDS011;35029;50.804;12.866;2023-04-20T12:14:50;13.25;;;9.98;;
49193;SDS011;35029;50.804;12.866;2023-04-20T12:17:16;13.43;;;10.50;;
49193;SDS011;35029;50.804;12.866;2023-04-20T12:19:41;10.85;;;9.75;;
49193;SDS011;35029;50.804;12.866;2023-04-20T12:22:07;12.60;;;9.88;;
49193;SDS011;35029;50.804;12.866;2023-04-20T12:24:32;10.18;;;8.63;;
49193;SDS011;35029;50.804;12.866;2023-04-20T12:26:58;11.38;;;9.80;;
49193;SDS011;35029;50.804;12.866;2023-04-20T12:29:24;14.93;;;11.95;;
49193;SDS011;35029;50.804;12.866;2023-04-20T12:31:50;17.33;;;13.65;;
49193;SDS011;35029;50.804;12.866;2023-04-20T12:34:16;17.45;;;12.80;;
49193;SDS011;35029;50.804;12.866;2023-04-20T12:36:41;14.05;;;12.55;;
49193;SDS011;35029;50.804;12.866;2023-04-20T12:39:07;14.23;;;12.73;;
49193;SDS011;35029;50.804;12.866;2023-04-20T12:41:33;14.32;;;12.82;;
49193;SDS011;35029;50.804;12.866;2023-04-20T12:43:59;14.73;;;13.23;;
49193;SDS011;35029;50.804;12.866;2023-04-20T12:46:25;16.70;;;13.30;;
49193;SDS011;35029;50.804;12.866;2023-04-20T12:48:51;19.58;;;15.05;;
49193;SDS011;35029;50.804;12.866;2023-04-20T12:51:16;16.88;;;13.60;;
49193;SDS011;35029;50.804;12.866;2023-04-20T12:53:42;14.98;;;13.35;;
49193;SDS011;35029;50.804;12.866;2023-04-20T12:56:07;17.02;;;14.27;;
49193;SDS011;35029;50.804;12.866;2023-04-20T12:58:33;14.32;;;12.50;;
49193;SDS011;35029;50.804;12.866;2023-04-20T13:00:58;14.77;;;13.27;;
49193;SDS011;35029;50.804;12.866;2023-04-20T13:03:24;16.40;;;13.73;;
49193;SDS011;35029;50.804;12.866;2023-04-20T13:05:49;15.85;;;14.25;;
49193;SDS011;35029;50.804;12.866;2023-04-20T13:08:15;16.20;;;14.40;;
49193;SDS011;35029;50.804;12.866;2023-04-20T13:10:41;20.30;;;16.23;;
49193;SDS011;35029;50.804;12.866;2023-04-20T13:13:09;21.38;;;15.45;;
49193;SDS011;35029;50.804;12.866;2023-04-20T13:15:34;32.95;;;20.55;;
49193;SDS011;35029;50.804;12.866;2023-04-20T13:18:01;19.75;;;16.20;;
49193;SDS011;35029;50.804;12.866;2023-04-20T13:20:27;21.00;;;16.42;;
49193;SDS011;35029;50.804;12.866;2023-04-20T13:23:00;19.05;;;16.67;;
49193;SDS011;35029;50.804;12.866;2023-04-20T13:25:27;19.50;;;16.17;;
49193;SDS011;35029;50.804;12.866;2023-04-20T13:27:56;19.20;;;16.05;;
49193;SDS011;35029;50.804;12.866;2023-04-20T13:30:22;18.90;;;16.48;;
49193;SDS011;35029;50.804;12.866;2023-04-20T13:32:48;20.73;;;17.42;;
49193;SDS011;35029;50.804;12.866;2023-04-20T13:35:13;21.95;;;16.95;;
49193;SDS011;35029;50.804;12.866;2023-04-20T13:37:40;22.17;;;16.77;;
49193;SDS011;35029;50.804;12.866;2023-04-20T13:40:06;22.38;;;18.17;;
49193;SDS011;35029;50.804;12.866;2023-04-20T13:42:33;22.13;;;17.65;;
49193;SDS011;35029;50.804;12.866;2023-04-20T13:44:59;24.55;;;19.02;;
49193;SDS011;35029;50.804;12.866;2023-04-20T13:47:24;23.90;;;19.50;;
49193;SDS011;35029;50.804;12.866;2023-04-20T13:49:50;26.02;;;20.15;;
49193;SDS011;35029;50.804;12.866;2023-04-20T13:52:16;23.42;;;20.13;;
49193;SDS011;35029;50.804;12.866;2023-04-20T13:54:41;29.60;;;19.92;;
49193;SDS011;35029;50.804;12.866;2023-04-20T13:57:07;26.05;;;20.35;;
49193;SDS011;35029;50.804;12.866;2023-04-20T13:59:33;26.02;;;20.50;;
49193;SDS011;35029;50.804;12.866;2023-04-20T14:01:58;26.73;;;21.67;;
49193;SDS011;35029;50.804;12.866;2023-04-20T14:04:24;25.13;;;20.60;;
49193;SDS011;35029;50.804;12.866;2023-04-20T14:06:50;26.95;;;21.73;;
49193;SDS011;35029;50.804;12.866;2023-04-20T14:09:16;24.75;;;20.50;;
49193;SDS011;35029;50.804;12.866;2023-04-20T14:11:42;27.63;;;22.10;;
49193;SDS011;35029;50.804;12.866;2023-04-20T14:14:08;28.08;;;20.92;;
49193;SDS011;35029;50.804;12.866;2023-04-20T14:16:44;26.90;;;21.85;;
49193;SDS011;35029;50.804;12.866;2023-04-20T14:19:11;29.75;;;21.05;;
49193;SDS011;35029;50.804;12.866;2023-04-20T14:21:37;25.85;;;20.95;;
49193;SDS011;35029;50.804;12.866;2023-04-20T14:24:05;30.50;;;22.35;;
49193;SDS011;35029;50.804;12.866;2023-04-20T14:26:32;28.55;;;22.80;;